sensor_id;sensor_type;location;lat;lon;timestamp;pressure;altitude;pressure_sealevel;temperature;humidity
75668;BME280;64266;48.798;44.756;2023-05-10T00:01:25;101745.50;;;12.00;37.03
75668;BME280;64266;48.798;44.756;2023-05-10T00:06:27;101765.75;;;12.08;37.04
75668;BME280;64266;48.798;44.756;2023-05-10T00:11:30;101743.88;;;11.99;36.77
75668;BME280;64266;48.798;44.756;2023-05-10T00:16:33;101741.81;;;12.01;37.06
75668;BME280;64266;48.798;44.756;2023-05-10T00:21:35;101741.41;;;11.98;37.38
75668;BME280;64266;48.798;44.756;2023-05-10T00:26:38;101744.69;;;11.93;37.33
75668;BME280;64266;48.798;44.756;2023-05-10T00:31:41;101734.25;;;11.98;37.41
75668;BME280;64266;48.798;44.756;2023-05-10T00:36:44;101718.50;;;11.83;36.62
75668;BME280;64266;48.798;44.756;2023-05-10T00:41:47;101761.03;;;12.03;37.20
75668;BME280;64266;48.798;44.756;2023-05-10T00:46:51;101751.59;;;11.87;36.75
75668;BME280;64266;48.798;44.756;2023-05-10T00:51:55;101777.63;;;12.05;37.20
75668;BME280;64266;48.798;44.756;2023-05-10T00:56:57;101743.63;;;11.87;37.28
75668;BME280;64266;48.798;44.756;2023-05-10T01:02:01;101778.44;;;12.06;37.15
75668;BME280;64266;48.798;44.756;2023-05-10T01:07:05;101773.94;;;12.06;36.98
75668;BME280;64266;48.798;44.756;2023-05-10T01:12:08;101765.75;;;12.01;37.58
75668;BME280;64266;48.798;44.756;2023-05-10T01:17:13;101754.50;;;11.99;37.77
75668;BME280;64266;48.798;44.756;2023-05-10T01:33:59;101750.22;;;11.98;37.88
75668;BME280;64266;48.798;44.756;2023-05-10T01:39:17;101763.50;;;12.05;38.00
75668;BME280;64266;48.798;44.756;2023-05-10T01:50:27;101761.63;;;11.85;37.76
75668;BME280;64266;48.798;44.756;2023-05-10T01:55:35;101752.34;;;11.62;38.36
75668;BME280;64266;48.798;44.756;2023-05-10T02:00:46;101755.19;;;11.60;38.43
75668;BME280;64266;48.798;44.756;2023-05-10T02:05:50;101735.88;;;11.38;39.34
75668;BME280;64266;48.798;44.756;2023-05-10T02:10:56;101743.59;;;11.27;39.26
75668;BME280;64266;48.798;44.756;2023-05-10T02:16:01;101731.94;;;11.21;39.41
75668;BME280;64266;48.798;44.756;2023-05-10T02:21:06;101771.94;;;11.61;39.29
75668;BME280;64266;48.798;44.756;2023-05-10T02:26:08;101728.78;;;11.46;39.57
75668;BME280;64266;48.798;44.756;2023-05-10T02:31:13;101705.88;;;11.38;39.07
75668;BME280;64266;48.798;44.756;2023-05-10T02:36:17;101710.41;;;11.44;39.15
75668;BME280;64266;48.798;44.756;2023-05-10T02:41:22;101729.63;;;11.53;39.18
75668;BME280;64266;48.798;44.756;2023-05-10T02:46:25;101717.59;;;11.63;39.82
75668;BME280;64266;48.798;44.756;2023-05-10T02:51:31;101726.25;;;11.91;40.07
75668;BME280;64266;48.798;44.756;2023-05-10T02:56:35;101728.94;;;11.98;39.51
75668;BME280;64266;48.798;44.756;2023-05-10T03:01:38;101716.91;;;12.09;39.32
75668;BME280;64266;48.798;44.756;2023-05-10T03:06:41;101703.38;;;12.10;39.15
75668;BME280;64266;48.798;44.756;2023-05-10T03:17:44;101672.16;;;14.71;34.98
75668;BME280;64266;48.798;44.756;2023-05-10T03:22:53;101720.78;;;16.58;32.80
75668;BME280;64266;48.798;44.756;2023-05-10T03:28:01;101732.53;;;17.71;30.34
75668;BME280;64266;48.798;44.756;2023-05-10T03:33:05;101644.78;;;18.38;28.06
75668;BME280;64266;48.798;44.756;2023-05-10T03:38:15;101697.63;;;19.85;27.54
75668;BME280;64266;48.798;44.756;2023-05-10T03:43:18;101710.00;;;20.96;25.91
75668;BME280;64266;48.798;44.756;2023-05-10T03:48:21;101720.50;;;21.75;24.71
75668;BME280;64266;48.798;44.756;2023-05-10T03:53:24;101717.59;;;22.32;23.86
75668;BME280;64266;48.798;44.756;2023-05-10T03:58:27;101682.69;;;22.56;23.60
75668;BME280;64266;48.798;44.756;2023-05-10T04:03:30;101681.72;;;23.06;23.65
75668;BME280;64266;48.798;44.756;2023-05-10T04:08:32;101712.31;;;23.60;23.37
75668;BME280;64266;48.798;44.756;2023-05-10T04:13:35;101704.25;;;23.89;22.72
75668;BME280;64266;48.798;44.756;2023-05-10T04:18:38;101666.13;;;24.14;22.08
75668;BME280;64266;48.798;44.756;2023-05-10T04:23:41;101674.66;;;24.55;21.61
75668;BME280;64266;48.798;44.756;2023-05-10T04:28:44;101638.97;;;24.43;21.77
75668;BME280;64266;48.798;44.756;2023-05-10T04:33:47;101711.94;;;25.16;21.57
75668;BME280;64266;48.798;44.756;2023-05-10T04:38:50;101698.34;;;25.58;20.17
75668;BME280;64266;48.798;44.756;2023-05-10T04:43:54;101716.41;;;25.68;20.92
75668;BME280;64266;48.798;44.756;2023-05-10T04:48:59;101659.41;;;24.59;21.86
75668;BME280;64266;48.798;44.756;2023-05-10T04:54:02;101686.97;;;25.14;21.51
75668;BME280;64266;48.798;44.756;2023-05-10T04:59:08;101691.78;;;25.41;20.56
75668;BME280;64266;48.798;44.756;2023-05-10T05:04:12;101691.84;;;25.92;20.47
75668;BME280;64266;48.798;44.756;2023-05-10T05:09:16;101704.72;;;26.00;21.22
75668;BME280;64266;48.798;44.756;2023-05-10T05:14:19;101662.34;;;26.31;20.17
75668;BME280;64266;48.798;44.756;2023-05-10T05:19:23;101694.06;;;25.71;21.56
75668;BME280;64266;48.798;44.756;2023-05-10T05:24:26;101667.50;;;24.12;22.62
75668;BME280;64266;48.798;44.756;2023-05-10T05:29:28;101674.59;;;23.25;24.47
75668;BME280;64266;48.798;44.756;2023-05-10T05:34:31;101684.06;;;23.28;24.72
75668;BME280;64266;48.798;44.756;2023-05-10T05:39:36;101702.22;;;22.33;25.41
75668;BME280;64266;48.798;44.756;2023-05-10T05:44:39;101668.03;;;21.21;26.44
75668;BME280;64266;48.798;44.756;2023-05-10T05:49:46;101705.59;;;20.80;27.35
75668;BME280;64266;48.798;44.756;2023-05-10T05:54:49;101694.34;;;20.10;28.46
75668;BME280;64266;48.798;44.756;2023-05-10T05:59:51;101707.00;;;19.77;29.53
75668;BME280;64266;48.798;44.756;2023-05-10T06:04:54;101666.66;;;19.82;28.74
75668;BME280;64266;48.798;44.756;2023-05-10T06:09:57;101692.16;;;19.75;29.35
75668;BME280;64266;48.798;44.756;2023-05-10T06:15:00;101717.03;;;19.60;29.37
75668;BME280;64266;48.798;44.756;2023-05-10T06:20:06;101689.75;;;19.03;30.75
75668;BME280;64266;48.798;44.756;2023-05-10T06:25:12;101706.97;;;18.64;30.80
75668;BME280;64266;48.798;44.756;2023-05-10T06:30:16;101699.16;;;18.46;31.34
75668;BME280;64266;48.798;44.756;2023-05-10T06:35:21;101700.63;;;18.53;31.31
75668;BME280;64266;48.798;44.756;2023-05-10T06:40:24;101660.03;;;18.16;31.71
75668;BME280;64266;48.798;44.756;2023-05-10T06:45:28;101686.16;;;18.21;32.21
75668;BME280;64266;48.798;44.756;2023-05-10T06:50:32;101713.56;;;18.23;32.75
75668;BME280;64266;48.798;44.756;2023-05-10T06:55:36;101712.16;;;18.04;32.67
75668;BME280;64266;48.798;44.756;2023-05-10T07:00:40;101702.41;;;17.81;33.97
75668;BME280;64266;48.798;44.756;2023-05-10T07:05:46;101730.56;;;18.12;33.41
75668;BME280;64266;48.798;44.756;2023-05-10T07:10:50;101704.75;;;17.94;33.36
75668;BME280;64266;48.798;44.756;2023-05-10T07:15:53;101713.22;;;18.03;36.74
75668;BME280;64266;48.798;44.756;2023-05-10T07:20:57;101711.19;;;18.10;37.64
75668;BME280;64266;48.798;44.756;2023-05-10T07:26:00;101721.63;;;18.23;38.79
75668;BME280;64266;48.798;44.756;2023-05-10T07:31:05;101696.38;;;18.07;37.11
75668;BME280;64266;48.798;44.756;2023-05-10T07:36:26;101720.06;;;18.27;36.05
75668;BME280;64266;48.798;44.756;2023-05-10T07:41:31;101704.34;;;18.52;35.50
75668;BME280;64266;48.798;44.756;2023-05-10T07:46:36;101669.84;;;18.44;35.11
75668;BME280;64266;48.798;44.756;2023-05-10T07:51:43;101682.19;;;18.62;35.49
75668;BME280;64266;48.798;44.756;2023-05-10T07:56:50;101669.78;;;19.21;34.27
75668;BME280;64266;48.798;44.756;2023-05-10T08:01:54;101679.88;;;19.57;32.26
75668;BME280;64266;48.798;44.756;2023-05-10T08:06:57;101663.22;;;19.60;31.79
75668;BME280;64266;48.798;44.756;2023-05-10T08:12:01;101609.59;;;19.27;32.58
75668;BME280;64266;48.798;44.756;2023-05-10T08:17:05;101682.50;;;20.11;32.30
75668;BME280;64266;48.798;44.756;2023-05-10T08:22:08;101695.09;;;20.37;31.49
75668;BME280;64266;48.798;44.756;2023-05-10T08:27:12;101674.22;;;20.59;31.43
75668;BME280;64266;48.798;44.756;2023-05-10T08:32:18;101666.06;;;20.44;31.19
75668;BME280;64266;48.798;44.756;2023-05-10T08:37:23;101657.00;;;20.60;31.82
75668;BME280;64266;48.798;44.756;2023-05-10T08:42:30;101641.06;;;20.59;30.87
75668;BME280;64266;48.798;44.756;2023-05-10T08:47:36;101656.25;;;20.80;30.52
75668;BME280;64266;48.798;44.756;2023-05-10T08:52:40;101645.53;;;20.90;30.67
75668;BME280;64266;48.798;44.756;2023-05-10T08:57:46;101597.03;;;20.33;31.39
75668;BME280;64266;48.798;44.756;2023-05-10T09:02:50;101634.56;;;20.49;31.08
75668;BME280;64266;48.798;44.756;2023-05-10T09:07:53;101637.53;;;20.53;31.45
75668;BME280;64266;48.798;44.756;2023-05-10T09:12:58;101628.66;;;20.52;31.73
75668;BME280;64266;48.798;44.756;2023-05-10T09:18:02;101619.22;;;20.55;31.50
75668;BME280;64266;48.798;44.756;2023-05-10T09:23:04;101591.25;;;20.19;31.31
75668;BME280;64266;48.798;44.756;2023-05-10T09:28:09;101591.47;;;20.13;32.21
75668;BME280;64266;48.798;44.756;2023-05-10T09:33:12;101587.03;;;20.33;31.79
75668;BME280;64266;48.798;44.756;2023-05-10T09:38:14;101604.09;;;20.44;31.58
75668;BME280;64266;48.798;44.756;2023-05-10T09:43:20;101599.72;;;20.33;31.97
75668;BME280;64266;48.798;44.756;2023-05-10T09:48:23;101608.88;;;20.37;31.65
75668;BME280;64266;48.798;44.756;2023-05-10T09:53:27;101595.94;;;20.34;32.24
75668;BME280;64266;48.798;44.756;2023-05-10T09:58:36;101604.84;;;20.34;31.58
75668;BME280;64266;48.798;44.756;2023-05-10T10:03:42;101607.81;;;20.33;31.43
75668;BME280;64266;48.798;44.756;2023-05-10T10:08:48;101601.72;;;20.16;31.06
75668;BME280;64266;48.798;44.756;2023-05-10T10:13:52;101612.78;;;20.14;31.81
75668;BME280;64266;48.798;44.756;2023-05-10T10:18:56;101604.94;;;20.13;32.68
75668;BME280;64266;48.798;44.756;2023-05-10T10:23:59;101606.88;;;20.17;32.79
75668;BME280;64266;48.798;44.756;2023-05-10T10:34:26;101582.41;;;20.24;32.27
75668;BME280;64266;48.798;44.756;2023-05-10T10:39:32;101535.25;;;19.79;32.30
75668;BME280;64266;48.798;44.756;2023-05-10T10:44:36;101582.13;;;20.25;32.39
75668;BME280;64266;48.798;44.756;2023-05-10T10:55:14;101525.84;;;19.82;32.57
75668;BME280;64266;48.798;44.756;2023-05-10T11:10:35;101557.81;;;20.10;32.50
75668;BME280;64266;48.798;44.756;2023-05-10T11:15:40;101539.38;;;19.92;32.87
75668;BME280;64266;48.798;44.756;2023-05-10T11:20:58;101535.94;;;20.01;33.16
75668;BME280;64266;48.798;44.756;2023-05-10T11:26:02;101524.59;;;19.94;33.76
75668;BME280;64266;48.798;44.756;2023-05-10T11:31:10;101539.78;;;20.11;33.33
75668;BME280;64266;48.798;44.756;2023-05-10T11:36:17;101534.78;;;20.29;33.42
75668;BME280;64266;48.798;44.756;2023-05-10T11:41:22;101536.94;;;20.32;32.77
75668;BME280;64266;48.798;44.756;2023-05-10T11:46:26;101532.91;;;20.30;33.55
75668;BME280;64266;48.798;44.756;2023-05-10T11:51:33;101517.19;;;20.17;32.90
75668;BME280;64266;48.798;44.756;2023-05-10T11:56:39;101535.38;;;20.41;33.67
75668;BME280;64266;48.798;44.756;2023-05-10T12:01:42;101520.56;;;20.44;33.14
75668;BME280;64266;48.798;44.756;2023-05-10T12:06:46;101513.53;;;20.38;32.91
75668;BME280;64266;48.798;44.756;2023-05-10T12:11:55;101496.78;;;20.26;33.66
75668;BME280;64266;48.798;44.756;2023-05-10T12:17:14;101528.13;;;20.52;33.37
75668;BME280;64266;48.798;44.756;2023-05-10T12:22:20;101528.69;;;20.54;33.33
75668;BME280;64266;48.798;44.756;2023-05-10T12:27:25;101535.66;;;20.50;33.22
75668;BME280;64266;48.798;44.756;2023-05-10T12:32:41;101524.81;;;20.35;33.55
75668;BME280;64266;48.798;44.756;2023-05-10T12:37:44;101535.50;;;20.20;34.12
75668;BME280;64266;48.798;44.756;2023-05-10T12:42:47;101538.19;;;20.20;34.07
75668;BME280;64266;48.798;44.756;2023-05-10T12:47:54;101550.09;;;20.24;34.36
75668;BME280;64266;48.798;44.756;2023-05-10T12:52:56;101540.69;;;20.26;34.81
75668;BME280;64266;48.798;44.756;2023-05-10T12:58:00;101531.84;;;20.36;34.53
75668;BME280;64266;48.798;44.756;2023-05-10T13:03:05;101497.50;;;20.11;34.69
75668;BME280;64266;48.798;44.756;2023-05-10T13:08:07;101529.38;;;20.29;33.71
75668;BME280;64266;48.798;44.756;2023-05-10T13:13:10;101505.00;;;20.09;34.85
75668;BME280;64266;48.798;44.756;2023-05-10T13:18:13;101529.53;;;20.13;35.17
75668;BME280;64266;48.798;44.756;2023-05-10T13:23:15;101485.44;;;19.72;35.30
75668;BME280;64266;48.798;44.756;2023-05-10T13:28:19;101522.94;;;19.88;35.99
75668;BME280;64266;48.798;44.756;2023-05-10T13:33:21;101530.19;;;19.83;36.36
75668;BME280;64266;48.798;44.756;2023-05-10T13:38:24;101522.09;;;19.78;36.16
75668;BME280;64266;48.798;44.756;2023-05-10T13:43:29;101521.22;;;19.72;36.50
75668;BME280;64266;48.798;44.756;2023-05-10T13:48:32;101533.28;;;19.65;36.78
75668;BME280;64266;48.798;44.756;2023-05-10T13:53:36;101513.19;;;19.40;36.90
75668;BME280;64266;48.798;44.756;2023-05-10T13:58:40;101527.94;;;19.38;38.19
75668;BME280;64266;48.798;44.756;2023-05-10T14:03:44;101525.91;;;19.23;39.64
75668;BME280;64266;48.798;44.756;2023-05-10T14:08:47;101509.63;;;19.03;42.02
75668;BME280;64266;48.798;44.756;2023-05-10T14:13:50;101521.69;;;19.01;43.96
75668;BME280;64266;48.798;44.756;2023-05-10T14:18:54;101533.00;;;18.76;46.35
75668;BME280;64266;48.798;44.756;2023-05-10T14:23:58;101544.44;;;18.66;49.42
75668;BME280;64266;48.798;44.756;2023-05-10T14:29:02;101539.50;;;18.58;49.75
75668;BME280;64266;48.798;44.756;2023-05-10T14:34:06;101543.91;;;18.48;51.91
75668;BME280;64266;48.798;44.756;2023-05-10T14:39:09;101519.97;;;18.24;51.87
75668;BME280;64266;48.798;44.756;2023-05-10T14:44:15;101543.03;;;18.20;53.38
75668;BME280;64266;48.798;44.756;2023-05-10T14:49:19;101548.13;;;18.22;54.59
75668;BME280;64266;48.798;44.756;2023-05-10T14:54:24;101548.19;;;18.05;56.14
75668;BME280;64266;48.798;44.756;2023-05-10T14:59:29;101557.50;;;17.81;57.45
75668;BME280;64266;48.798;44.756;2023-05-10T15:04:32;101535.84;;;17.54;55.31
75668;BME280;64266;48.798;44.756;2023-05-10T15:09:36;101558.88;;;17.67;55.00
75668;BME280;64266;48.798;44.756;2023-05-10T15:14:39;101548.28;;;17.44;55.55
75668;BME280;64266;48.798;44.756;2023-05-10T15:19:44;101558.44;;;17.42;58.60
75668;BME280;64266;48.798;44.756;2023-05-10T15:24:46;101541.19;;;17.21;58.84
75668;BME280;64266;48.798;44.756;2023-05-10T15:29:49;101557.41;;;17.14;61.51
75668;BME280;64266;48.798;44.756;2023-05-10T15:34:51;101542.03;;;16.93;61.75
75668;BME280;64266;48.798;44.756;2023-05-10T15:39:54;101538.50;;;16.76;64.20
75668;BME280;64266;48.798;44.756;2023-05-10T15:44:58;101518.06;;;16.47;64.39
75668;BME280;64266;48.798;44.756;2023-05-10T15:50:01;101558.34;;;16.52;66.02
75668;BME280;64266;48.798;44.756;2023-05-10T15:55:04;101516.16;;;16.07;67.41
75668;BME280;64266;48.798;44.756;2023-05-10T16:00:14;101566.38;;;16.40;67.66
75668;BME280;64266;48.798;44.756;2023-05-10T16:05:17;101536.16;;;16.16;67.53
75668;BME280;64266;48.798;44.756;2023-05-10T16:10:21;101567.22;;;16.29;68.19
75668;BME280;64266;48.798;44.756;2023-05-10T16:15:24;101570.72;;;16.30;68.96
75668;BME280;64266;48.798;44.756;2023-05-10T16:20:27;101572.81;;;16.16;68.24
75668;BME280;64266;48.798;44.756;2023-05-10T16:25:32;101555.97;;;16.04;68.08
75668;BME280;64266;48.798;44.756;2023-05-10T16:30:35;101580.50;;;16.12;66.87
75668;BME280;64266;48.798;44.756;2023-05-10T16:35:38;101583.41;;;16.11;67.23
75668;BME280;64266;48.798;44.756;2023-05-10T16:40:40;101551.19;;;15.94;68.16
75668;BME280;64266;48.798;44.756;2023-05-10T16:45:43;101565.72;;;15.98;68.60
75668;BME280;64266;48.798;44.756;2023-05-10T16:50:45;101582.97;;;16.02;68.51
75668;BME280;64266;48.798;44.756;2023-05-10T16:55:48;101589.81;;;15.98;68.50
75668;BME280;64266;48.798;44.756;2023-05-10T17:00:51;101572.13;;;15.86;69.07
75668;BME280;64266;48.798;44.756;2023-05-10T17:05:53;101598.88;;;15.97;70.22
75668;BME280;64266;48.798;44.756;2023-05-10T17:11:00;101597.69;;;15.82;70.32
75668;BME280;64266;48.798;44.756;2023-05-10T17:16:04;101622.84;;;15.81;71.07
75668;BME280;64266;48.798;44.756;2023-05-10T17:21:07;101592.31;;;15.58;69.82
75668;BME280;64266;48.798;44.756;2023-05-10T17:26:11;101633.38;;;15.76;68.80
75668;BME280;64266;48.798;44.756;2023-05-10T17:31:14;101627.81;;;15.65;69.12
75668;BME280;64266;48.798;44.756;2023-05-10T17:36:17;101626.84;;;15.60;68.10
75668;BME280;64266;48.798;44.756;2023-05-10T17:41:20;101609.28;;;15.52;69.54
75668;BME280;64266;48.798;44.756;2023-05-10T17:46:23;101580.28;;;15.38;71.09
75668;BME280;64266;48.798;44.756;2023-05-10T17:51:25;101621.75;;;15.58;71.63
75668;BME280;64266;48.798;44.756;2023-05-10T17:56:28;101620.66;;;15.48;71.34
75668;BME280;64266;48.798;44.756;2023-05-10T18:01:30;101606.03;;;15.32;72.29
75668;BME280;64266;48.798;44.756;2023-05-10T18:06:37;101618.75;;;15.37;72.50
75668;BME280;64266;48.798;44.756;2023-05-10T18:11:40;101628.16;;;15.39;73.25
75668;BME280;64266;48.798;44.756;2023-05-10T18:16:43;101634.41;;;15.33;72.59
75668;BME280;64266;48.798;44.756;2023-05-10T18:21:45;101636.69;;;15.18;73.11
75668;BME280;64266;48.798;44.756;2023-05-10T18:26:47;101649.44;;;15.16;73.23
75668;BME280;64266;48.798;44.756;2023-05-10T18:31:50;101589.09;;;14.79;74.42
75668;BME280;64266;48.798;44.756;2023-05-10T18:36:53;101630.53;;;14.99;73.23
75668;BME280;64266;48.798;44.756;2023-05-10T18:41:55;101610.97;;;14.87;73.84
75668;BME280;64266;48.798;44.756;2023-05-10T18:46:58;101598.03;;;14.73;73.51
75668;BME280;64266;48.798;44.756;2023-05-10T18:52:00;101622.94;;;14.85;73.69
75668;BME280;64266;48.798;44.756;2023-05-10T18:57:03;101617.22;;;14.81;74.72
75668;BME280;64266;48.798;44.756;2023-05-10T19:02:06;101630.50;;;14.88;75.56
75668;BME280;64266;48.798;44.756;2023-05-10T19:07:09;101625.72;;;14.90;76.11
75668;BME280;64266;48.798;44.756;2023-05-10T19:12:12;101636.66;;;14.88;74.71
75668;BME280;64266;48.798;44.756;2023-05-10T19:17:14;101615.38;;;14.63;75.07
75668;BME280;64266;48.798;44.756;2023-05-10T19:22:19;101602.31;;;14.55;75.45
75668;BME280;64266;48.798;44.756;2023-05-10T19:27:42;101581.63;;;14.33;75.86
75668;BME280;64266;48.798;44.756;2023-05-10T19:32:45;101595.13;;;14.38;75.49
75668;BME280;64266;48.798;44.756;2023-05-10T19:37:47;101600.59;;;14.43;76.71
75668;BME280;64266;48.798;44.756;2023-05-10T19:42:52;101578.97;;;14.33;75.60
75668;BME280;64266;48.798;44.756;2023-05-10T19:47:55;101549.25;;;14.04;75.17
75668;BME280;64266;48.798;44.756;2023-05-10T19:52:58;101568.69;;;14.11;76.65
75668;BME280;64266;48.798;44.756;2023-05-10T19:58:02;101534.94;;;13.81;76.99
75668;BME280;64266;48.798;44.756;2023-05-10T20:03:06;101564.94;;;13.94;78.33
75668;BME280;64266;48.798;44.756;2023-05-10T20:08:10;101602.25;;;14.19;78.59
75668;BME280;64266;48.798;44.756;2023-05-10T20:13:12;101574.03;;;14.11;78.51
75668;BME280;64266;48.798;44.756;2023-05-10T20:18:15;101579.28;;;14.18;77.75
75668;BME280;64266;48.798;44.756;2023-05-10T20:23:17;101568.69;;;14.11;77.84
75668;BME280;64266;48.798;44.756;2023-05-10T20:28:21;101567.00;;;14.17;77.80
75668;BME280;64266;48.798;44.756;2023-05-10T20:33:25;101576.97;;;14.22;77.83
75668;BME280;64266;48.798;44.756;2023-05-10T20:38:28;101552.00;;;14.16;77.62
75668;BME280;64266;48.798;44.756;2023-05-10T20:43:31;101544.06;;;14.09;76.96
75668;BME280;64266;48.798;44.756;2023-05-10T20:48:35;101543.69;;;14.06;77.13
75668;BME280;64266;48.798;44.756;2023-05-10T20:53:38;101560.91;;;14.10;77.14
75668;BME280;64266;48.798;44.756;2023-05-10T20:58:41;101546.31;;;14.12;76.94
75668;BME280;64266;48.798;44.756;2023-05-10T21:03:44;101543.13;;;14.04;76.53
75668;BME280;64266;48.798;44.756;2023-05-10T21:08:47;101545.69;;;13.92;76.70
75668;BME280;64266;48.798;44.756;2023-05-10T21:13:50;101569.94;;;14.09;77.28
75668;BME280;64266;48.798;44.756;2023-05-10T21:18:53;101565.47;;;14.03;77.15
75668;BME280;64266;48.798;44.756;2023-05-10T21:23:57;101567.06;;;14.10;76.25
75668;BME280;64266;48.798;44.756;2023-05-10T21:28:59;101520.44;;;13.95;76.79
75668;BME280;64266;48.798;44.756;2023-05-10T21:34:02;101542.81;;;14.12;76.90
75668;BME280;64266;48.798;44.756;2023-05-10T21:39:04;101539.94;;;14.13;76.77
75668;BME280;64266;48.798;44.756;2023-05-10T21:44:07;101527.69;;;14.06;77.32
75668;BME280;64266;48.798;44.756;2023-05-10T21:49:09;101513.47;;;14.12;77.89
75668;BME280;64266;48.798;44.756;2023-05-10T21:54:13;101505.03;;;14.15;76.63
75668;BME280;64266;48.798;44.756;2023-05-10T21:59:16;101502.00;;;14.11;77.13
75668;BME280;64266;48.798;44.756;2023-05-10T22:04:19;101500.50;;;14.16;76.97
75668;BME280;64266;48.798;44.756;2023-05-10T22:09:22;101520.44;;;14.13;77.57
75668;BME280;64266;48.798;44.756;2023-05-10T22:14:26;101495.47;;;14.07;76.68
75668;BME280;64266;48.798;44.756;2023-05-10T22:19:30;101517.63;;;14.08;76.36
75668;BME280;64266;48.798;44.756;2023-05-10T22:24:33;101523.34;;;14.11;77.58
75668;BME280;64266;48.798;44.756;2023-05-10T22:29:36;101465.78;;;13.86;76.96
75668;BME280;64266;48.798;44.756;2023-05-10T22:34:38;101508.75;;;13.96;77.59
75668;BME280;64266;48.798;44.756;2023-05-10T22:39:41;101517.91;;;14.00;77.96
75668;BME280;64266;48.798;44.756;2023-05-10T22:44:44;101502.59;;;13.95;77.06
75668;BME280;64266;48.798;44.756;2023-05-10T22:49:46;101461.19;;;13.75;77.21
75668;BME280;64266;48.798;44.756;2023-05-10T22:54:49;101506.78;;;13.85;78.66
75668;BME280;64266;48.798;44.756;2023-05-10T22:59:52;101508.31;;;13.99;80.23
75668;BME280;64266;48.798;44.756;2023-05-10T23:04:55;101508.81;;;13.89;78.76
75668;BME280;64266;48.798;44.756;2023-05-10T23:09:58;101468.53;;;13.54;79.46
75668;BME280;64266;48.798;44.756;2023-05-10T23:15:01;101486.84;;;13.69;79.26
75668;BME280;64266;48.798;44.756;2023-05-10T23:20:06;101472.47;;;13.52;78.31
75668;BME280;64266;48.798;44.756;2023-05-10T23:25:10;101523.56;;;13.67;78.12
75668;BME280;64266;48.798;44.756;2023-05-10T23:30:13;101515.63;;;13.61;78.84
75668;BME280;64266;48.798;44.756;2023-05-10T23:35:16;101442.13;;;13.28;78.58
75668;BME280;64266;48.798;44.756;2023-05-10T23:40:19;101499.63;;;13.61;78.17
75668;BME280;64266;48.798;44.756;2023-05-10T23:45:21;101461.97;;;13.32;78.57
75668;BME280;64266;48.798;44.756;2023-05-10T23:50:24;101497.59;;;13.38;78.63
75668;BME280;64266;48.798;44.756;2023-05-10T23:55:28;101465.63;;;13.13;79.48
